LICR

Reggio Calabria Airport

Reggio Calabria, Italy
TAF LICR 231700Z 2318/2418 35015KT 9999 SCT030 BECMG 2318/2320 VRB05KT BECMG 2408/2410 35012KT
Issued Valid From Valid To
Apr-23 @ 17:00 UTC
(6 hours ago)
Apr-23 @ 18:00 UTC
(5 hours ago)
Apr-24 @ 18:00 UTC
(in 19 hours)
Apr-23 @ 18:00 to Apr-24 @ 18:00
TAF LICR 231700Z 2318/2418 35015KT 9999 SCT030
Wind Visibility Clouds
350° at 15 knots 10,000+ meters
  • Scattered at 3,000' AGL
Becoming Apr-23 @ 18:00 to Apr-24 @ 08:00
BECMG 2318/2320 VRB05KT
Wind Visibility Clouds
Variable at 5 knots 10,000+ meters
  • Scattered at 3,000' AGL
Becoming Apr-24 @ 08:00 to Apr-24 @ 18:00
BECMG 2408/2410 35012KT
Wind Visibility Clouds
350° at 12 knots 10,000+ meters
  • Scattered at 3,000' AGL
TAF LICR 231700Z 2318/2418 35015KT 9999 SCT030 BECMG 2318/2320 VRB05KT BECMG 2408/2410 35012KT
Issued Apr-23 @ 17:00 UTC
(6 hours ago)
Valid From Apr-23 @ 18:00 UTC
(5 hours ago)
Valid To Apr-24 @ 18:00 UTC
(in 19 hours)
Apr-23 @ 18:00 - Apr-24 @ 18:00
Wind Visibility
350° at 15 knots 10,000+ meters
Clouds
  • Scattered at 3,000' AGL
Becoming Apr-23 @ 18:00 - Apr-24 @ 08:00
Wind Visibility
Variable at 5 knots 10,000+ meters
Clouds
  • Scattered at 3,000' AGL
Becoming Apr-24 @ 08:00 - Apr-24 @ 18:00
Wind Visibility
350° at 12 knots 10,000+ meters
Clouds
  • Scattered at 3,000' AGL